createdAt,value
2022-11-23T00:00:08.203Z,7.01
2022-11-23T00:02:37.209Z,7.10
2022-11-23T00:05:06.723Z,7.14
2022-11-23T00:07:35.992Z,6.93
2022-11-23T00:10:07.137Z,7.14
2022-11-23T00:12:36.031Z,7.33
2022-11-23T00:15:06.282Z,7.33
2022-11-23T00:17:37.687Z,7.28
2022-11-23T00:20:10.133Z,7.17
2022-11-23T00:22:39.010Z,7.27
2022-11-23T00:25:10.140Z,7.36
2022-11-23T00:27:38.923Z,7.23
2022-11-23T00:30:09.340Z,7.44
2022-11-23T00:32:38.056Z,7.35
2022-11-23T00:35:09.762Z,7.19
2022-11-23T00:37:40.901Z,7.23
2022-11-23T00:40:12.131Z,7.28
2022-11-23T00:42:41.165Z,7.40
2022-11-23T00:45:11.097Z,7.25
2022-11-23T00:47:39.902Z,7.25
2022-11-23T00:50:09.302Z,7.42
2022-11-23T00:52:38.290Z,7.37
2022-11-23T00:55:07.600Z,7.38
2022-11-23T00:57:40.447Z,7.66
2022-11-23T01:00:12.948Z,7.42
2022-11-23T01:02:44.234Z,7.35
2022-11-23T01:05:16.026Z,7.47
2022-11-23T01:07:46.133Z,7.44
2022-11-23T01:10:17.084Z,7.23
2022-11-23T01:12:49.183Z,7.33
2022-11-23T01:15:19.604Z,7.47
2022-11-23T01:17:49.847Z,7.22
2022-11-23T01:20:20.329Z,7.53
2022-11-23T01:22:53.562Z,7.19
2022-11-23T01:25:24.386Z,7.28
2022-11-23T01:27:55.651Z,7.33
2022-11-23T01:30:26.692Z,7.27
2022-11-23T01:32:56.869Z,7.31
2022-11-23T01:35:28.034Z,7.47
2022-11-23T01:37:57.999Z,7.46
2022-11-23T01:40:28.186Z,7.28
2022-11-23T01:43:00.808Z,6.40
2022-11-23T01:45:40.934Z,7.50
2022-11-23T01:48:15.874Z,7.55
2022-11-23T01:50:47.600Z,7.48
2022-11-23T01:53:17.027Z,7.45
2022-11-23T01:55:48.788Z,7.48
2022-11-23T01:58:21.928Z,6.58
2022-11-23T02:00:51.200Z,7.46
2022-11-23T02:03:22.920Z,7.47
2022-11-23T02:05:59.333Z,7.36
2022-11-23T02:08:30.934Z,7.33
2022-11-23T02:11:00.936Z,7.07
2022-11-23T02:13:31.746Z,7.36
2022-11-23T02:16:00.648Z,7.36
2022-11-23T02:18:36.336Z,7.05
2022-11-23T02:21:07.675Z,7.21
2022-11-23T02:23:45.211Z,7.35
2022-11-23T02:26:19.181Z,6.91
2022-11-23T02:28:52.025Z,7.66
2022-11-23T02:31:20.655Z,7.59
2022-11-23T02:33:49.581Z,7.46
2022-11-23T02:36:42.421Z,7.64
2022-11-23T02:39:14.901Z,7.54
2022-11-23T02:41:50.733Z,7.44
2022-11-23T02:44:34.831Z,6.94
2022-11-23T02:47:04.006Z,7.35
2022-11-23T02:49:36.659Z,7.32
2022-11-23T02:52:05.886Z,7.29
2022-11-23T02:54:35.418Z,7.20
2022-11-23T02:57:07.945Z,7.13
2022-11-23T02:59:40.926Z,7.26
2022-11-23T03:02:10.222Z,7.32
2022-11-23T03:04:38.959Z,7.20
2022-11-23T03:07:07.788Z,7.05
2022-11-23T03:09:37.146Z,7.17
2022-11-23T03:12:09.699Z,7.23
2022-11-23T03:14:38.986Z,7.22
2022-11-23T03:17:07.832Z,7.18
2022-11-23T03:19:42.905Z,7.16
2022-11-23T03:22:13.247Z,7.37
2022-11-23T03:24:42.035Z,7.37
2022-11-23T03:27:17.868Z,7.14
2022-11-23T03:29:47.714Z,7.07
2022-11-23T03:32:20.937Z,7.11
2022-11-23T03:34:55.139Z,7.12
2022-11-23T03:37:24.384Z,7.10
2022-11-23T03:39:55.715Z,7.15
2022-11-23T03:42:47.932Z,7.12
2022-11-23T03:45:16.726Z,7.39
2022-11-23T03:47:46.315Z,7.39
2022-11-23T03:50:18.242Z,7.25
2022-11-23T03:52:49.679Z,7.20
2022-11-23T03:55:18.913Z,7.29
2022-11-23T03:57:50.412Z,7.26
2022-11-23T04:00:19.750Z,7.12
2022-11-23T04:02:48.922Z,7.25
2022-11-23T04:05:36.371Z,7.31
2022-11-23T04:08:23.449Z,7.35
2022-11-23T04:10:52.854Z,7.41
2022-11-23T04:13:26.441Z,7.29
2022-11-23T04:15:55.130Z,7.25
2022-11-23T04:18:23.842Z,7.26
2022-11-23T04:20:52.656Z,7.34
2022-11-23T04:23:21.676Z,7.46
2022-11-23T04:25:51.689Z,7.33
2022-11-23T04:28:21.502Z,7.14
2022-11-23T04:30:54.835Z,7.40
2022-11-23T04:33:24.935Z,7.33
2022-11-23T04:35:54.657Z,7.14
2022-11-23T04:38:23.322Z,7.33
2022-11-23T04:40:53.783Z,7.25
2022-11-23T04:43:24.724Z,7.37
2022-11-23T04:45:55.034Z,7.39
2022-11-23T04:48:30.267Z,7.41
2022-11-23T04:51:00.081Z,7.46
2022-11-23T04:53:35.322Z,7.44
2022-11-23T04:56:04.640Z,7.64
2022-11-23T04:58:38.239Z,7.59
2022-11-23T05:01:09.735Z,7.68
2022-11-23T05:03:50.529Z,7.46
2022-11-23T05:06:19.343Z,7.53
2022-11-23T05:08:48.110Z,7.53
2022-11-23T05:11:36.714Z,7.53
2022-11-23T05:14:05.759Z,7.55
2022-11-23T05:16:36.820Z,7.47
2022-11-23T05:19:05.575Z,7.51
2022-11-23T05:21:35.346Z,7.45
2022-11-23T05:24:05.199Z,7.45
2022-11-23T05:26:38.228Z,6.57
2022-11-23T05:29:07.017Z,7.43
2022-11-23T05:31:37.086Z,7.46
2022-11-23T05:34:05.911Z,7.34
2022-11-23T05:36:42.517Z,7.36
2022-11-23T05:39:12.266Z,7.62
2022-11-23T05:41:41.387Z,7.59
2022-11-23T05:44:23.757Z,7.48
2022-11-23T05:46:53.998Z,7.66
2022-11-23T05:49:23.382Z,7.48
2022-11-23T05:51:52.429Z,7.27
2022-11-23T05:54:21.533Z,7.59
2022-11-23T05:57:02.090Z,7.58
2022-11-23T05:59:38.628Z,7.35
2022-11-23T06:02:13.523Z,7.34
2022-11-23T06:04:43.280Z,7.25
2022-11-23T06:07:14.849Z,7.12
2022-11-23T06:10:04.799Z,7.15
2022-11-23T06:12:35.300Z,7.41
2022-11-23T06:15:08.747Z,7.33
2022-11-23T06:17:39.155Z,7.40
2022-11-23T06:20:12.766Z,7.42
2022-11-23T06:22:53.179Z,7.11
2022-11-23T06:25:26.480Z,6.48
2022-11-23T06:28:01.928Z,7.15
2022-11-23T06:30:42.928Z,7.16
2022-11-23T06:33:14.088Z,7.25
2022-11-23T06:35:56.108Z,7.16
2022-11-23T06:38:27.491Z,7.28
2022-11-23T06:41:11.258Z,7.27
2022-11-23T06:43:40.239Z,7.31
2022-11-23T06:46:12.579Z,7.28
2022-11-23T06:48:46.336Z,7.10
2022-11-23T06:51:21.683Z,7.21
2022-11-23T06:53:52.400Z,7.01
2022-11-23T06:56:23.904Z,6.95
2022-11-23T06:58:55.174Z,7.15
2022-11-23T07:01:27.993Z,6.94
2022-11-23T07:04:03.717Z,7.20
2022-11-23T07:06:40.126Z,6.94
2022-11-23T07:09:14.620Z,6.78
2022-11-23T07:12:00.652Z,6.57
2022-11-23T07:14:31.739Z,6.50
2022-11-23T07:17:01.476Z,6.66
2022-11-23T07:19:34.237Z,6.85
2022-11-23T07:22:06.954Z,6.68
2022-11-23T07:24:40.455Z,6.60
2022-11-23T07:27:14.163Z,6.56
2022-11-23T07:29:43.148Z,6.72
2022-11-23T07:32:15.032Z,6.72
2022-11-23T07:34:50.602Z,6.48
2022-11-23T07:37:21.630Z,6.70
2022-11-23T07:39:57.891Z,6.46
2022-11-23T07:42:35.619Z,6.53
2022-11-23T07:45:07.241Z,6.07
2022-11-23T07:47:38.475Z,6.69
2022-11-23T07:50:11.231Z,6.50
2022-11-23T07:52:42.271Z,6.46
2022-11-23T07:55:11.220Z,6.41
2022-11-23T07:57:42.341Z,6.57
2022-11-23T08:00:12.642Z,6.65
2022-11-23T08:02:58.194Z,6.56
2022-11-23T08:05:38.327Z,6.46
2022-11-23T08:08:07.827Z,6.43
2022-11-23T08:10:43.433Z,6.50
2022-11-23T08:13:14.282Z,6.68
2022-11-23T08:15:44.307Z,6.62
2022-11-23T08:18:17.513Z,6.64
2022-11-23T08:20:48.900Z,6.65
2022-11-23T08:23:17.686Z,6.87
2022-11-23T08:25:46.467Z,6.73
2022-11-23T08:28:15.702Z,6.75
2022-11-23T08:30:44.426Z,6.89
2022-11-23T08:33:14.713Z,7.09
2022-11-23T08:35:45.071Z,6.78
2022-11-23T08:38:16.840Z,6.93
2022-11-23T08:40:46.296Z,6.93
2022-11-23T08:43:17.485Z,6.86
2022-11-23T08:45:46.971Z,6.87
2022-11-23T08:48:17.514Z,6.95
2022-11-23T08:50:49.608Z,6.85
2022-11-23T08:53:20.822Z,7.02
2022-11-23T08:55:53.206Z,7.05
2022-11-23T08:58:23.367Z,7.09
2022-11-23T09:00:56.056Z,6.98
2022-11-23T09:03:26.282Z,6.86
2022-11-23T09:06:00.813Z,6.92
2022-11-23T09:08:33.866Z,7.32
2022-11-23T09:11:04.186Z,7.29
2022-11-23T09:13:37.272Z,7.39
2022-11-23T09:16:07.700Z,7.53
2022-11-23T09:18:38.655Z,7.57
2022-11-23T09:21:07.724Z,7.55
2022-11-23T09:23:40.255Z,7.44
2022-11-23T09:26:10.567Z,7.39
2022-11-23T09:28:44.488Z,7.44
2022-11-23T09:31:14.049Z,7.96
2022-11-23T09:33:43.435Z,8.00
2022-11-23T09:36:12.866Z,7.83
2022-11-23T09:38:56.090Z,7.75
2022-11-23T09:41:51.251Z,7.77
2022-11-23T09:44:28.633Z,7.94
2022-11-23T09:47:15.348Z,7.76
2022-11-23T09:49:58.201Z,7.56
2022-11-23T09:52:32.118Z,7.55
2022-11-23T09:55:11.448Z,7.67
2022-11-23T09:57:45.062Z,7.68
2022-11-23T10:00:20.109Z,7.86
2022-11-23T10:02:50.421Z,7.96
2022-11-23T10:05:24.217Z,7.13
2022-11-23T10:08:06.427Z,8.03
2022-11-23T10:10:43.172Z,7.66
2022-11-23T10:13:29.559Z,8.04
2022-11-23T10:16:11.550Z,7.99
2022-11-23T10:18:51.799Z,8.06
2022-11-23T10:21:30.490Z,7.81
2022-11-23T10:24:12.300Z,7.92
2022-11-23T10:26:45.325Z,8.10
2022-11-23T10:29:20.972Z,7.83
2022-11-23T10:31:55.467Z,7.81
2022-11-23T10:34:43.539Z,7.73
2022-11-23T10:37:14.711Z,7.70
2022-11-23T10:39:43.767Z,7.59
2022-11-23T10:42:22.546Z,7.67
2022-11-23T10:44:53.170Z,7.76
2022-11-23T10:47:40.027Z,7.66
2022-11-23T10:50:25.265Z,7.71
2022-11-23T10:52:57.459Z,7.56
2022-11-23T10:55:30.635Z,7.56
2022-11-23T10:58:02.311Z,7.36
2022-11-23T11:00:33.971Z,7.42
2022-11-23T11:03:24.183Z,7.29
2022-11-23T11:06:14.408Z,7.32
2022-11-23T11:08:52.460Z,7.04
2022-11-23T11:11:30.531Z,7.38
2022-11-23T11:15:05.297Z,7.38
2022-11-23T11:17:42.249Z,7.72
2022-11-23T11:20:32.451Z,7.90
2022-11-23T11:23:04.635Z,7.97
2022-11-23T11:25:37.415Z,8.00
2022-11-23T11:28:26.479Z,8.26
2022-11-23T11:31:07.972Z,8.10
2022-11-23T11:33:46.294Z,8.15
2022-11-23T11:36:17.397Z,8.30
2022-11-23T11:39:15.084Z,8.22
2022-11-23T11:41:41.157Z,7.93
2022-11-23T11:44:19.556Z,8.15
2022-11-23T11:46:52.672Z,8.17
2022-11-23T11:49:25.602Z,8.25
2022-11-23T11:52:00.226Z,8.31
2022-11-23T11:54:37.414Z,8.30
2022-11-23T11:57:13.903Z,8.44
2022-11-23T11:59:45.393Z,8.20
2022-11-23T12:02:23.149Z,8.41
2022-11-23T12:05:12.985Z,8.28
2022-11-23T12:07:47.399Z,8.38
2022-11-23T12:10:21.843Z,8.31
2022-11-23T12:12:52.185Z,8.47
2022-11-23T12:18:27.087Z,8.57
2022-11-23T12:21:04.254Z,8.67
2022-11-23T12:23:46.275Z,8.63
2022-11-23T12:26:25.539Z,8.59
2022-11-23T12:29:18.693Z,8.58
2022-11-23T12:31:53.053Z,8.59
2022-11-23T12:34:43.145Z,8.34
2022-11-23T12:37:30.964Z,8.34
2022-11-23T12:40:39.072Z,8.34
2022-11-23T12:43:15.338Z,7.51
2022-11-23T12:46:05.379Z,8.36
2022-11-23T12:48:45.460Z,8.33
2022-11-23T12:51:27.348Z,8.42
2022-11-23T12:54:14.721Z,8.40
2022-11-23T12:57:01.643Z,8.36
2022-11-23T12:59:41.007Z,8.40
2022-11-23T13:02:36.885Z,7.67
2022-11-23T13:05:29.182Z,8.06
2022-11-23T13:08:28.682Z,8.40
2022-11-23T13:11:14.898Z,8.32
2022-11-23T13:14:04.686Z,8.24
2022-11-23T13:17:03.434Z,8.13
2022-11-23T13:20:02.767Z,8.23
2022-11-23T13:22:34.219Z,7.91
2022-11-23T13:25:17.100Z,8.20
2022-11-23T13:27:57.783Z,8.06
2022-11-23T13:30:52.046Z,8.12
2022-11-23T13:33:34.416Z,6.80
2022-11-23T13:36:16.677Z,7.75
2022-11-23T13:38:52.372Z,7.72
2022-11-23T13:41:58.012Z,7.65
2022-11-23T13:44:32.030Z,7.76
2022-11-23T13:47:08.134Z,7.66
2022-11-23T13:49:42.582Z,7.68
2022-11-23T13:52:28.983Z,7.46
2022-11-23T13:55:10.344Z,7.34
2022-11-23T13:57:41.461Z,7.34
2022-11-23T14:00:50.813Z,7.50
2022-11-23T14:03:49.162Z,7.83
2022-11-23T14:06:25.715Z,7.67
2022-11-23T14:09:03.032Z,7.48
2022-11-23T14:11:41.310Z,7.36
2022-11-23T14:14:30.024Z,7.15
2022-11-23T14:17:21.531Z,7.37
2022-11-23T14:20:19.612Z,7.36
2022-11-23T14:23:04.155Z,7.48
2022-11-23T14:25:49.110Z,7.26
2022-11-23T14:28:35.431Z,7.52
2022-11-23T14:31:18.994Z,7.44
2022-11-23T14:33:56.556Z,7.60
2022-11-23T14:36:39.959Z,7.48
2022-11-23T14:39:51.327Z,7.52
2022-11-23T14:42:25.002Z,7.52
2022-11-23T14:45:03.479Z,7.04
2022-11-23T14:47:33.840Z,7.39
2022-11-23T14:50:05.203Z,7.45
2022-11-23T14:52:36.872Z,7.34
2022-11-23T14:55:08.419Z,7.63
2022-11-23T14:57:42.238Z,7.47
2022-11-23T15:00:27.015Z,7.27
2022-11-23T15:03:00.178Z,6.63
2022-11-23T15:05:34.656Z,7.32
2022-11-23T15:08:13.695Z,7.23
2022-11-23T15:10:50.780Z,7.44
2022-11-23T15:13:24.355Z,7.18
2022-11-23T15:15:55.566Z,7.24
2022-11-23T15:18:29.503Z,7.31
2022-11-23T15:21:02.372Z,7.34
2022-11-23T15:23:41.140Z,7.33
2022-11-23T15:26:34.688Z,7.58
2022-11-23T15:29:05.880Z,7.62
2022-11-23T15:31:36.610Z,7.33
2022-11-23T15:34:15.447Z,7.31
2022-11-23T15:36:57.119Z,7.17
2022-11-23T15:39:27.438Z,7.35
2022-11-23T15:41:57.219Z,7.32
2022-11-23T15:44:27.771Z,7.27
2022-11-23T15:47:02.623Z,7.46
2022-11-23T15:49:32.274Z,7.58
2022-11-23T15:52:16.722Z,7.30
2022-11-23T15:54:50.412Z,7.25
2022-11-23T15:57:23.069Z,7.26
2022-11-23T15:59:59.186Z,7.42
2022-11-23T16:02:31.039Z,7.39
2022-11-23T16:05:12.596Z,7.47
2022-11-23T16:07:54.003Z,7.46
2022-11-23T16:10:25.958Z,7.49
2022-11-23T16:12:56.644Z,7.46
2022-11-23T16:15:37.757Z,7.56
2022-11-23T16:18:22.402Z,7.14
2022-11-23T16:20:54.275Z,6.20
2022-11-23T16:23:26.876Z,7.34
2022-11-23T16:25:59.358Z,7.45
2022-11-23T16:28:30.990Z,7.39
2022-11-23T16:31:00.542Z,7.51
2022-11-23T16:33:34.138Z,7.64
2022-11-23T16:36:02.825Z,7.36
2022-11-23T16:38:37.348Z,7.43
2022-11-23T16:41:06.072Z,7.53
2022-11-23T16:43:37.353Z,7.44
2022-11-23T16:46:07.335Z,7.65
2022-11-23T16:48:42.255Z,7.54
2022-11-23T16:51:14.427Z,7.53
2022-11-23T16:54:12.414Z,7.65
2022-11-23T16:56:35.937Z,7.44
2022-11-23T16:59:04.996Z,7.14
2022-11-23T17:01:36.040Z,7.35
2022-11-23T17:04:04.960Z,7.36
2022-11-23T17:06:33.989Z,7.32
2022-11-23T17:09:08.040Z,7.54
2022-11-23T17:11:42.663Z,7.49
2022-11-23T17:14:18.870Z,7.59
2022-11-23T17:16:48.663Z,7.40
2022-11-23T17:19:23.382Z,6.51
2022-11-23T17:21:52.104Z,7.57
2022-11-23T17:24:24.985Z,7.56
2022-11-23T17:26:57.249Z,7.43
2022-11-23T17:29:25.973Z,7.29
2022-11-23T17:31:57.058Z,6.69
2022-11-23T17:34:25.834Z,7.68
2022-11-23T17:36:55.323Z,7.51
2022-11-23T17:39:28.547Z,7.65
2022-11-23T17:42:03.081Z,7.51
2022-11-23T17:44:33.290Z,7.42
2022-11-23T17:47:02.072Z,7.26
2022-11-23T17:49:31.596Z,7.34
2022-11-23T17:52:00.807Z,7.35
2022-11-23T17:54:31.027Z,7.44
2022-11-23T17:56:59.990Z,7.27
2022-11-23T17:59:29.836Z,7.22
2022-11-23T18:01:59.135Z,7.30
2022-11-23T18:04:27.956Z,7.34
2022-11-23T18:06:57.236Z,7.33
2022-11-23T18:09:26.195Z,7.22
2022-11-23T18:11:57.014Z,7.43
2022-11-23T18:14:28.884Z,7.34
2022-11-23T18:16:57.623Z,7.27
2022-11-23T18:19:31.840Z,7.19
2022-11-23T18:22:00.859Z,7.24
2022-11-23T18:24:29.848Z,7.28
2022-11-23T18:27:01.096Z,7.31
2022-11-23T18:29:29.879Z,7.37
2022-11-23T18:31:58.888Z,7.15
2022-11-23T18:34:28.069Z,7.28
2022-11-23T18:36:56.981Z,6.80
2022-11-23T18:39:25.621Z,7.04
2022-11-23T18:41:54.335Z,7.25
2022-11-23T18:44:24.390Z,7.25
2022-11-23T18:46:53.163Z,7.25
2022-11-23T18:49:22.654Z,7.22
2022-11-23T18:51:53.624Z,6.97
2022-11-23T18:54:22.376Z,7.00
2022-11-23T18:56:51.100Z,7.30
2022-11-23T18:59:49.899Z,7.21
2022-11-23T19:02:11.639Z,6.92
2022-11-23T19:04:43.188Z,7.11
2022-11-23T19:07:12.399Z,6.87
2022-11-23T19:09:43.471Z,7.20
2022-11-23T19:12:14.848Z,7.18
2022-11-23T19:14:45.958Z,7.14
2022-11-23T19:17:16.339Z,7.06
2022-11-23T19:19:45.260Z,6.86
2022-11-23T19:22:13.943Z,7.07
2022-11-23T19:24:42.627Z,7.04
2022-11-23T19:27:11.384Z,6.75
2022-11-23T19:29:40.025Z,7.06
2022-11-23T19:32:12.226Z,6.90
2022-11-23T19:34:42.457Z,7.01
2022-11-23T19:37:12.628Z,6.46
2022-11-23T19:39:46.866Z,6.95
2022-11-23T19:42:16.347Z,7.07
2022-11-23T19:44:46.584Z,7.04
2022-11-23T19:47:22.371Z,6.89
2022-11-23T19:49:53.291Z,6.98
2022-11-23T19:52:22.998Z,7.09
2022-11-23T19:54:51.699Z,6.89
2022-11-23T19:57:22.292Z,7.09
2022-11-23T19:59:54.859Z,7.14
2022-11-23T20:02:26.441Z,7.10
2022-11-23T20:04:59.697Z,7.13
2022-11-23T20:07:32.257Z,6.99
2022-11-23T20:10:01.671Z,6.93
2022-11-23T20:12:30.825Z,6.82
2022-11-23T20:15:00.939Z,6.91
2022-11-23T20:17:31.525Z,6.88
2022-11-23T20:20:02.970Z,6.79
2022-11-23T20:22:35.373Z,6.75
2022-11-23T20:25:07.527Z,6.72
2022-11-23T20:27:38.682Z,6.87
2022-11-23T20:30:09.307Z,6.82
2022-11-23T20:32:44.251Z,6.83
2022-11-23T20:35:15.165Z,6.94
2022-11-23T20:37:44.695Z,6.92
2022-11-23T20:40:13.656Z,6.69
2022-11-23T20:42:44.926Z,6.81
2022-11-23T20:45:16.253Z,6.98
2022-11-23T20:47:45.100Z,6.86
2022-11-23T20:50:15.260Z,7.07
2022-11-23T20:52:44.440Z,6.90
2022-11-23T20:55:13.082Z,6.90
2022-11-23T20:57:41.994Z,6.73
2022-11-23T21:00:12.350Z,6.65
2022-11-23T21:02:41.641Z,6.61
2022-11-23T21:05:10.536Z,7.00
2022-11-23T21:07:40.628Z,6.70
2022-11-23T21:10:10.584Z,6.75
2022-11-23T21:12:56.887Z,6.72
2022-11-23T21:15:26.305Z,6.70
2022-11-23T21:17:55.317Z,6.63
2022-11-23T21:20:23.992Z,6.58
2022-11-23T21:22:54.433Z,6.79
2022-11-23T21:25:23.355Z,6.77
2022-11-23T21:27:52.052Z,6.92
2022-11-23T21:30:21.010Z,7.16
2022-11-23T21:32:50.677Z,7.04
2022-11-23T21:35:19.721Z,7.12
2022-11-23T21:37:49.465Z,7.09
2022-11-23T21:41:15.531Z,7.21
2022-11-23T21:43:52.403Z,6.92
2022-11-23T21:46:21.609Z,7.08
2022-11-23T21:48:53.540Z,6.99
2022-11-23T21:51:26.233Z,7.08
2022-11-23T21:53:55.209Z,7.29
2022-11-23T21:56:27.127Z,7.17
2022-11-23T21:58:58.135Z,7.23
2022-11-23T22:01:29.236Z,7.08
2022-11-23T22:04:00.969Z,7.06
2022-11-23T22:06:30.167Z,7.09
2022-11-23T22:09:02.269Z,7.32
2022-11-23T22:11:34.143Z,7.15
2022-11-23T22:14:08.687Z,7.26
2022-11-23T22:16:38.592Z,7.26
2022-11-23T22:19:12.229Z,7.31
2022-11-23T22:21:42.359Z,7.05
2022-11-23T22:24:14.837Z,7.08
2022-11-23T22:26:44.656Z,7.36
2022-11-23T22:29:15.192Z,7.50
2022-11-23T22:31:44.248Z,7.32
2022-11-23T22:34:14.216Z,7.12
2022-11-23T22:36:43.127Z,7.11
2022-11-23T22:39:14.247Z,7.10
2022-11-23T22:41:42.919Z,7.26
2022-11-23T22:44:11.790Z,7.25
2022-11-23T22:46:45.673Z,7.17
2022-11-23T22:49:14.363Z,7.35
2022-11-23T22:51:43.036Z,7.22
2022-11-23T22:54:11.904Z,7.32
2022-11-23T22:56:40.825Z,7.24
2022-11-23T22:59:09.731Z,7.46
2022-11-23T23:01:38.401Z,7.40
2022-11-23T23:04:08.550Z,7.37
2022-11-23T23:06:38.369Z,7.44
2022-11-23T23:09:09.303Z,7.50
2022-11-23T23:11:39.032Z,7.50
2022-11-23T23:14:08.038Z,7.50
2022-11-23T23:16:36.828Z,7.42
2022-11-23T23:19:06.373Z,7.57
2022-11-23T23:21:36.424Z,7.56
2022-11-23T23:24:08.199Z,7.47
2022-11-23T23:26:37.048Z,7.66
2022-11-23T23:29:06.220Z,7.80
2022-11-23T23:31:37.457Z,7.53
2022-11-23T23:34:06.115Z,7.71
2022-11-23T23:36:36.856Z,7.80
2022-11-23T23:39:06.277Z,7.70
2022-11-23T23:41:37.612Z,7.57
2022-11-23T23:44:06.462Z,7.59
2022-11-23T23:46:35.220Z,7.57
2022-11-23T23:49:04.134Z,7.52
2022-11-23T23:51:32.887Z,7.54
2022-11-23T23:54:03.634Z,7.73
2022-11-23T23:56:34.578Z,7.64
2022-11-23T23:59:03.374Z,7.61
